KTOL/TOL METAR and TAF weather

Enter ICAO airport designator
Station Type Date Time Source
KTOL METAR 2021/04/17 02:52 UTC NOAA

KTOL 170252Z 24006KT 10SM FEW070 11/03 A2989 RMK AO2 SLP126 T01060033 51008


Station Type Date Time Source
KTOL Decoded METAR 2021/04/17 02:52 UTC NOAA

TOLEDO EXPRESS AIRPORT, OH, United States (KTOL) 41-35N 083-48W 210M
Apr 16, 2021 - 10:52 PM EDT / 2021.04.17 0252 UTC
Wind: from the WSW (240 degrees) at 7 MPH (6 KT):0
Visibility: 10 mile(s):0
Sky conditions: mostly clear
Temperature: 51.1 F (10.6 C)
Dew Point: 37.9 F (3.3 C)
Relative Humidity: 60%
Pressure (altimeter): 29.89 in. Hg (1012 hPa)
Pressure tendency: 0.02 inches (0.8 hPa) higher than three hours ago
ob: KTOL 170252Z 24006KT 10SM FEW070 11/03 A2989 RMK AO2 SLP126 T01060033 51008
cycle: 3

Station Type Date Time Source
KTOL TAF 2021/04/16 18:42 UTC NOAA

TAF KTOL 161740Z 1618/1718 33010KT P6SM SCT025
TEMPO 1618/1621 BKN025
FM162100 34009KT P6SM FEW070
FM170700 01004KT P6SM SCT050
FM170800 04004KT P6SM SCT070
FM171500 VRB02KT P6SM BKN030

Example: see airport list